< Typhoon 195509 1955 Season Typhoon 195511 >
Typhoon 195510 (NO-NAME)
General InformationTrack Information on Google Maps || Disaster Info.ResourceGoogle EarthGE AnimationAtom FeedGeoJSON
Detalied Best Track (Time Zone = UTC)
Year Month Day Hour Lat. Long. Pressure (hPa) Wind (kt) Class Image Chart
1955 7 17 00 22.6 137.3 1002 0 2 -- Chart
1955 7 17 06 23.0 138.2 1002 0 2 -- Chart
1955 7 17 12 23.5 139.0 1002 0 2 -- Chart
1955 7 17 18 24.0 139.7 1002 0 2 -- Chart
1955 7 18 00 24.7 140.6 1000 0 2 -- Chart
1955 7 18 06 26.2 141.6 996 0 2 -- Chart
1955 7 18 12 26.6 141.9 994 0 9 -- Chart
1955 7 18 18 27.6 142.3 990 0 9 -- Chart
1955 7 19 00 29.1 141.5 990 0 9 -- Chart
1955 7 19 06 31.6 141.0 1000 0 2 -- Chart
1955 7 19 12 32.9 141.3 1000 0 2 -- Chart
1955 7 19 18 34.4 141.5 1002 0 2 -- Chart
1955 7 20 00 35.9 141.9 1000 0 2 -- Chart
1955 7 20 06 37.0 143.0 1000 0 2 -- Chart
1955 7 20 12 37.7 144.9 1000 0 2 -- Chart
1955 7 20 18 38.0 146.8 998 0 2 -- Chart
1955 7 21 00 39.0 149.0 996 0 2 -- Chart
1955 7 21 06 39.8 152.0 994 0 2 -- Chart
1955 7 21 12 40.0 154.5 990 0 9 -- Chart
1955 7 21 18 41.5 157.6 990 0 9 -- Chart
1955 7 22 00 42.0 161.0 992 0 9 -- Chart
1955 7 22 06 43.0 163.4 998 0 9 -- Chart
1955 7 22 12 44.0 165.8 1000 0 6 -- Chart
1955 7 22 18 44.8 172.3 1002 0 6 -- Chart
1955 7 23 00 47.0 176.0 1004 0 6 -- Chart
1955 7 23 06 47.7 178.0 1004 0 6 -- Chart
1955 7 23 12 48.6 180.2 1004 0 6 -- Chart
Japan Meteorological Agency Best Track Data | Correction Date : 1991-07-16
< Typhoon 195509 1955 Season Typhoon 195511 >

Help